createdAt,value
2023-04-22T00:01:13.537Z,9.63
2023-04-22T00:03:42.311Z,9.60
2023-04-22T00:06:09.620Z,9.62
2023-04-22T00:08:36.887Z,9.59
2023-04-22T00:11:04.033Z,9.57
2023-04-22T00:13:31.169Z,9.56
2023-04-22T00:15:58.420Z,9.54
2023-04-22T00:18:26.107Z,9.51
2023-04-22T00:20:53.448Z,9.51
2023-04-22T00:23:20.758Z,9.49
2023-04-22T00:25:47.854Z,9.45
2023-04-22T00:28:14.885Z,9.43
2023-04-22T00:30:42.001Z,9.41
2023-04-22T00:33:09.818Z,9.40
2023-04-22T00:35:37.011Z,9.37
2023-04-22T00:38:04.409Z,9.34
2023-04-22T00:40:31.560Z,9.34
2023-04-22T00:42:59.730Z,9.29
2023-04-22T00:45:26.996Z,9.24
2023-04-22T00:47:54.617Z,9.23
2023-04-22T00:50:21.804Z,9.21
2023-04-22T00:52:49.680Z,9.22
2023-04-22T00:55:17.091Z,9.20
2023-04-22T00:57:44.380Z,9.19
2023-04-22T01:00:12.090Z,9.17
2023-04-22T01:02:39.433Z,9.18
2023-04-22T01:05:09.618Z,9.18
2023-04-22T01:07:36.806Z,9.18
2023-04-22T01:10:04.534Z,9.14
2023-04-22T01:12:31.638Z,9.13
2023-04-22T01:14:58.758Z,9.07
2023-04-22T01:17:26.050Z,9.08
2023-04-22T01:19:53.368Z,9.06
2023-04-22T01:22:20.838Z,9.04
2023-04-22T01:24:48.068Z,9.03
2023-04-22T01:27:15.266Z,9.04
2023-04-22T01:29:42.889Z,9.02
2023-04-22T01:32:10.513Z,9.01
2023-04-22T01:34:37.816Z,8.94
2023-04-22T01:37:06.135Z,8.97
2023-04-22T01:39:33.558Z,8.89
2023-04-22T01:42:02.158Z,9.02
2023-04-22T01:44:29.335Z,8.93
2023-04-22T01:46:56.601Z,9.02
2023-04-22T01:49:23.685Z,9.02
2023-04-22T01:51:51.368Z,8.98
2023-04-22T01:54:19.417Z,8.90
2023-04-22T01:56:51.161Z,8.91
2023-04-22T01:59:18.728Z,8.88
2023-04-22T02:01:46.041Z,8.88
2023-04-22T02:04:13.153Z,8.80
2023-04-22T02:06:41.510Z,8.82
2023-04-22T02:09:08.692Z,8.81
2023-04-22T02:11:35.808Z,8.86
2023-04-22T02:14:02.885Z,8.83
2023-04-22T02:16:30.101Z,8.80
2023-04-22T02:18:57.329Z,8.81
2023-04-22T02:21:24.361Z,8.77
2023-04-22T02:23:51.507Z,8.79
2023-04-22T02:26:18.648Z,8.80
2023-04-22T02:28:46.284Z,8.77
2023-04-22T02:31:13.348Z,8.70
2023-04-22T02:33:41.057Z,8.63
2023-04-22T02:36:09.857Z,8.58
2023-04-22T02:38:37.849Z,8.54
2023-04-22T02:41:05.167Z,8.51
2023-04-22T02:43:32.233Z,8.50
2023-04-22T02:45:59.335Z,8.50
2023-04-22T02:48:26.741Z,8.46
2023-04-22T02:50:53.919Z,8.46
2023-04-22T02:53:20.975Z,8.45
2023-04-22T02:55:56.944Z,8.45
2023-04-22T02:58:24.274Z,8.40
2023-04-22T03:00:51.373Z,8.40
2023-04-22T03:03:18.752Z,8.42
2023-04-22T03:05:46.097Z,8.42
2023-04-22T03:08:15.653Z,8.43
2023-04-22T03:10:43.214Z,8.40
2023-04-22T03:13:10.317Z,8.39
2023-04-22T03:15:37.514Z,8.35
2023-04-22T03:18:05.389Z,8.36
2023-04-22T03:20:33.041Z,8.35
2023-04-22T03:23:00.618Z,8.34
2023-04-22T03:25:28.106Z,8.34
2023-04-22T03:27:57.059Z,8.32
2023-04-22T03:30:25.487Z,8.30
2023-04-22T03:32:53.703Z,8.24
2023-04-22T03:35:50.425Z,8.23
2023-04-22T03:38:18.219Z,8.19
2023-04-22T03:40:45.339Z,8.16
2023-04-22T03:43:21.725Z,8.16
2023-04-22T03:45:59.633Z,8.10
2023-04-22T03:48:35.634Z,8.11
2023-04-22T03:51:06.847Z,8.10
2023-04-22T03:53:36.646Z,8.08
2023-04-22T03:56:04.181Z,8.07
2023-04-22T03:58:33.733Z,8.01
2023-04-22T04:01:05.197Z,8.01
2023-04-22T04:03:32.762Z,7.97
2023-04-22T04:06:00.575Z,7.91
2023-04-22T04:08:27.909Z,7.85
2023-04-22T04:10:55.121Z,7.87
2023-04-22T04:13:23.122Z,7.85
2023-04-22T04:16:08.970Z,7.82
2023-04-22T04:18:39.420Z,7.83
2023-04-22T04:21:06.603Z,7.82
2023-04-22T04:23:37.953Z,7.80
2023-04-22T04:26:05.656Z,7.75
2023-04-22T04:28:36.087Z,7.79
2023-04-22T04:31:03.352Z,7.73
2023-04-22T04:33:32.353Z,7.72
2023-04-22T04:36:00.094Z,7.73
2023-04-22T04:38:31.076Z,7.75
2023-04-22T04:40:58.630Z,7.72
2023-04-22T04:43:29.399Z,7.78
2023-04-22T04:46:09.539Z,7.90
2023-04-22T04:48:38.168Z,8.11
2023-04-22T04:51:09.462Z,8.38
2023-04-22T04:53:41.941Z,8.95
2023-04-22T04:56:09.004Z,9.17
2023-04-22T04:58:36.289Z,9.52
2023-04-22T05:01:22.386Z,9.13
2023-04-22T05:03:49.767Z,9.08
2023-04-22T05:06:18.715Z,9.10
2023-04-22T05:08:50.204Z,8.94
2023-04-22T05:11:17.272Z,8.82
2023-04-22T05:13:47.255Z,9.02
2023-04-22T05:16:20.650Z,9.57
2023-04-22T05:18:47.804Z,9.60
2023-04-22T05:21:16.840Z,9.66
2023-04-22T05:23:45.191Z,10.15
2023-04-22T05:26:12.819Z,10.49
2023-04-22T05:28:42.356Z,10.71
2023-04-22T05:31:09.473Z,10.46
2023-04-22T05:33:37.699Z,10.31
2023-04-22T05:36:06.201Z,10.60
2023-04-22T05:38:33.320Z,10.63
2023-04-22T05:41:00.937Z,10.72
2023-04-22T05:43:28.779Z,11.01
2023-04-22T05:46:03.073Z,11.19
2023-04-22T05:48:32.584Z,11.38
2023-04-22T05:51:03.507Z,11.57
2023-04-22T05:53:31.071Z,11.93
2023-04-22T05:56:00.626Z,11.58
2023-04-22T05:58:27.733Z,11.60
2023-04-22T06:00:57.911Z,11.24
2023-04-22T06:03:43.454Z,11.60
2023-04-22T06:06:12.481Z,11.31
2023-04-22T06:08:39.816Z,11.42
2023-04-22T06:11:06.904Z,11.98
2023-04-22T06:13:35.973Z,12.14
2023-04-22T06:16:05.283Z,12.70
2023-04-22T06:18:33.540Z,12.48
2023-04-22T06:21:01.780Z,12.24
2023-04-22T06:23:28.830Z,12.01
2023-04-22T06:25:58.413Z,12.21
2023-04-22T06:28:25.552Z,12.34
2023-04-22T06:30:56.094Z,12.72
2023-04-22T06:33:23.113Z,13.05
2023-04-22T06:35:51.032Z,12.71
2023-04-22T06:38:18.234Z,12.83
2023-04-22T06:41:12.181Z,12.98
2023-04-22T06:43:43.402Z,13.05
2023-04-22T06:46:19.363Z,13.04
2023-04-22T06:48:49.230Z,13.29
2023-04-22T06:51:25.194Z,13.79
2023-04-22T06:53:52.284Z,13.90
2023-04-22T06:56:19.368Z,13.65
2023-04-22T06:58:46.478Z,14.21
2023-04-22T07:01:13.520Z,14.39
2023-04-22T07:03:41.656Z,14.55
2023-04-22T07:06:11.997Z,14.64
2023-04-22T07:08:39.580Z,15.16
2023-04-22T07:11:06.770Z,14.53
2023-04-22T07:13:40.707Z,14.39
2023-04-22T07:16:07.930Z,14.98
2023-04-22T07:18:36.062Z,15.05
2023-04-22T07:21:03.138Z,15.06
2023-04-22T07:23:30.247Z,14.80
2023-04-22T07:25:57.400Z,14.60
2023-04-22T07:28:24.501Z,14.88
2023-04-22T07:30:51.551Z,15.23
2023-04-22T07:33:18.577Z,14.84
2023-04-22T07:35:45.673Z,15.19
2023-04-22T07:38:14.542Z,15.38
2023-04-22T07:40:41.802Z,15.04
2023-04-22T07:43:08.903Z,15.29
2023-04-22T07:45:36.091Z,15.43
2023-04-22T07:48:04.141Z,15.57
2023-04-22T07:50:31.220Z,15.20
2023-04-22T07:52:58.311Z,15.71
2023-04-22T07:55:25.370Z,15.76
2023-04-22T07:57:52.404Z,15.55
2023-04-22T08:00:19.443Z,15.35
2023-04-22T08:02:47.498Z,15.54
2023-04-22T08:05:14.692Z,16.25
2023-04-22T08:07:42.122Z,16.83
2023-04-22T08:10:09.425Z,16.57
2023-04-22T08:12:37.016Z,16.43
2023-04-22T08:15:04.314Z,15.93
2023-04-22T08:17:31.388Z,16.11
2023-04-22T08:19:58.416Z,16.38
2023-04-22T08:22:25.511Z,16.80
2023-04-22T08:24:52.563Z,16.43
2023-04-22T08:27:21.346Z,16.55
2023-04-22T08:29:48.425Z,16.83
2023-04-22T08:32:15.733Z,16.59
2023-04-22T08:34:43.970Z,16.71
2023-04-22T08:37:11.392Z,16.94
2023-04-22T08:39:38.656Z,17.16
2023-04-22T08:42:06.006Z,17.51
2023-04-22T08:44:34.994Z,17.67
2023-04-22T08:47:03.305Z,17.42
2023-04-22T08:49:30.613Z,17.77
2023-04-22T08:51:57.678Z,17.00
2023-04-22T08:54:24.765Z,17.73
2023-04-22T08:56:52.217Z,17.99
2023-04-22T08:59:20.458Z,17.96
2023-04-22T09:01:49.775Z,17.85
2023-04-22T09:04:18.858Z,17.53
2023-04-22T09:06:46.045Z,18.37
2023-04-22T09:09:14.263Z,17.78
2023-04-22T09:11:41.316Z,18.22
2023-04-22T09:14:08.384Z,17.76
2023-04-22T09:16:41.396Z,18.18
2023-04-22T09:19:11.703Z,18.21
2023-04-22T09:21:39.532Z,18.09
2023-04-22T09:24:10.869Z,18.15
2023-04-22T09:26:42.062Z,18.53
2023-04-22T09:29:13.611Z,18.40
2023-04-22T09:31:41.002Z,18.70
2023-04-22T09:34:08.674Z,19.00
2023-04-22T09:36:37.603Z,18.87
2023-04-22T09:39:07.435Z,18.70
2023-04-22T09:41:36.627Z,18.57
2023-04-22T09:44:04.423Z,18.83
2023-04-22T09:46:31.867Z,18.64
2023-04-22T09:48:59.535Z,18.41
2023-04-22T09:51:30.642Z,18.10
2023-04-22T09:54:05.128Z,18.18
2023-04-22T09:57:13.624Z,18.82
2023-04-22T09:59:40.797Z,19.13
2023-04-22T10:02:09.494Z,19.15
2023-04-22T10:04:36.776Z,19.19
2023-04-22T10:07:03.882Z,18.94
2023-04-22T10:09:30.974Z,19.14
2023-04-22T10:11:59.114Z,19.55
2023-04-22T10:14:26.244Z,19.62
2023-04-22T10:16:56.445Z,19.45
2023-04-22T10:19:24.524Z,19.19
2023-04-22T10:21:57.100Z,19.46
2023-04-22T10:24:26.318Z,19.67
2023-04-22T10:26:59.895Z,19.61
2023-04-22T10:29:34.982Z,19.56
2023-04-22T10:32:06.094Z,19.83
2023-04-22T10:34:33.520Z,19.66
2023-04-22T10:37:06.595Z,19.76
2023-04-22T10:39:33.705Z,19.78
2023-04-22T10:42:03.512Z,19.82
2023-04-22T10:44:45.151Z,19.71
2023-04-22T10:47:12.423Z,19.42
2023-04-22T10:49:39.766Z,19.64
2023-04-22T10:52:08.726Z,19.48
2023-04-22T10:54:56.092Z,19.29
2023-04-22T10:57:23.292Z,19.24
2023-04-22T10:59:54.448Z,19.48
2023-04-22T11:02:22.291Z,19.54
2023-04-22T11:04:49.761Z,19.54
2023-04-22T11:07:22.855Z,19.74
2023-04-22T11:09:50.781Z,19.74
2023-04-22T11:12:39.372Z,19.54
2023-04-22T11:15:10.523Z,19.33
2023-04-22T11:17:38.635Z,19.58
2023-04-22T11:20:07.148Z,19.76
2023-04-22T11:22:53.517Z,20.02
2023-04-22T11:25:20.926Z,19.92
2023-04-22T11:27:48.096Z,19.89
2023-04-22T11:30:19.375Z,19.97
2023-04-22T11:32:47.617Z,20.15
2023-04-22T11:35:15.874Z,20.44
2023-04-22T11:37:44.186Z,20.22
2023-04-22T11:42:42.162Z,20.09
2023-04-22T11:45:09.581Z,20.03
2023-04-22T11:47:36.705Z,20.18
2023-04-22T11:50:06.995Z,20.07
2023-04-22T11:52:45.266Z,20.40
2023-04-22T11:55:13.138Z,20.44
2023-04-22T11:57:40.992Z,20.43
2023-04-22T12:00:10.856Z,20.54
2023-04-22T12:02:38.131Z,20.68
2023-04-22T12:05:09.056Z,20.71
2023-04-22T12:07:36.333Z,20.20
2023-04-22T12:10:05.624Z,20.30
2023-04-22T12:12:35.471Z,20.31
2023-04-22T12:15:13.785Z,20.36
2023-04-22T12:17:44.390Z,20.47
2023-04-22T12:20:13.094Z,20.92
2023-04-22T12:22:40.279Z,20.28
2023-04-22T12:25:08.999Z,20.56
2023-04-22T12:27:36.872Z,20.16
2023-04-22T12:30:04.302Z,20.38
2023-04-22T12:32:31.992Z,20.35
2023-04-22T12:34:59.043Z,20.60
2023-04-22T12:37:26.881Z,20.68
2023-04-22T12:39:53.937Z,20.54
2023-04-22T12:42:21.005Z,20.55
2023-04-22T12:44:48.072Z,20.59
2023-04-22T12:47:17.930Z,20.50
2023-04-22T12:49:47.270Z,20.31
2023-04-22T12:52:14.576Z,20.44
2023-04-22T12:54:41.658Z,20.63
2023-04-22T12:57:08.779Z,20.80
2023-04-22T12:59:35.969Z,20.75
2023-04-22T13:02:03.070Z,20.87
2023-04-22T13:04:30.199Z,20.54
2023-04-22T13:06:57.413Z,20.61
2023-04-22T13:09:25.577Z,20.69
2023-04-22T13:11:52.932Z,20.67
2023-04-22T13:14:19.958Z,20.70
2023-04-22T13:16:47.081Z,20.84
2023-04-22T13:19:14.204Z,20.91
2023-04-22T13:21:41.556Z,21.01
2023-04-22T13:24:09.024Z,20.56
2023-04-22T13:26:36.531Z,20.58
2023-04-22T13:29:03.625Z,20.46
2023-04-22T13:31:30.760Z,20.59
2023-04-22T13:33:57.888Z,20.60
2023-04-22T13:36:26.189Z,20.84
2023-04-22T13:38:53.286Z,20.98
2023-04-22T13:41:20.475Z,20.98
2023-04-22T13:43:51.830Z,20.43
2023-04-22T13:46:19.085Z,20.42
2023-04-22T13:48:46.383Z,20.09
2023-04-22T13:51:13.426Z,20.22
2023-04-22T13:53:40.518Z,20.15
2023-04-22T13:56:07.568Z,20.06
2023-04-22T13:58:34.654Z,20.19
2023-04-22T14:01:01.761Z,19.89
2023-04-22T14:03:31.209Z,20.01
2023-04-22T14:05:58.421Z,19.95
2023-04-22T14:08:25.455Z,20.13
2023-04-22T14:10:52.719Z,19.95
2023-04-22T14:13:21.211Z,19.93
2023-04-22T14:15:50.413Z,20.00
2023-04-22T14:18:17.507Z,20.17
2023-04-22T14:20:45.217Z,20.28
2023-04-22T14:23:12.324Z,20.38
2023-04-22T14:25:39.416Z,20.34
2023-04-22T14:28:06.464Z,20.03
2023-04-22T14:30:33.612Z,20.17
2023-04-22T14:33:00.988Z,19.96
2023-04-22T14:35:28.063Z,20.08
2023-04-22T14:37:55.133Z,20.09
2023-04-22T14:40:25.889Z,20.10
2023-04-22T14:42:53.355Z,19.93
2023-04-22T14:45:21.793Z,19.90
2023-04-22T14:47:48.867Z,19.92
2023-04-22T14:50:16.117Z,19.79
2023-04-22T14:52:43.660Z,19.61
2023-04-22T14:55:21.843Z,19.61
2023-04-22T14:57:50.775Z,19.60
2023-04-22T15:00:17.925Z,19.51
2023-04-22T15:02:45.366Z,19.52
2023-04-22T15:05:12.583Z,19.36
2023-04-22T15:07:39.697Z,19.59
2023-04-22T15:10:07.031Z,19.52
2023-04-22T15:12:34.133Z,19.52
2023-04-22T15:15:01.205Z,19.48
2023-04-22T15:17:30.550Z,19.44
2023-04-22T15:19:57.926Z,19.45
2023-04-22T15:22:25.379Z,19.36
2023-04-22T15:24:52.608Z,19.35
2023-04-22T15:27:19.707Z,19.22
2023-04-22T15:29:47.411Z,19.17
2023-04-22T15:32:14.460Z,19.17
2023-04-22T15:34:41.510Z,19.15
2023-04-22T15:37:08.596Z,19.14
2023-04-22T15:39:35.636Z,19.11
2023-04-22T15:42:02.932Z,19.03
2023-04-22T15:44:30.524Z,18.97
2023-04-22T15:46:59.426Z,18.92
2023-04-22T15:49:26.692Z,18.89
2023-04-22T15:51:53.868Z,18.89
2023-04-22T15:54:21.226Z,18.91
2023-04-22T15:56:48.358Z,18.80
2023-04-22T15:59:15.671Z,18.80
2023-04-22T16:01:45.225Z,18.69
2023-04-22T16:04:13.458Z,18.67
2023-04-22T16:06:40.756Z,18.58
2023-04-22T16:09:07.837Z,18.62
2023-04-22T16:11:34.903Z,18.59
2023-04-22T16:14:01.993Z,18.63
2023-04-22T16:16:29.207Z,18.56
2023-04-22T16:18:56.376Z,18.48
2023-04-22T16:21:23.822Z,18.44
2023-04-22T16:23:50.836Z,18.36
2023-04-22T16:26:17.943Z,18.27
2023-04-22T16:28:46.632Z,18.22
2023-04-22T16:31:13.831Z,18.17
2023-04-22T16:33:41.075Z,18.11
2023-04-22T16:36:08.955Z,18.05
2023-04-22T16:38:36.054Z,18.05
2023-04-22T16:41:03.845Z,18.03
2023-04-22T16:43:31.011Z,18.00
2023-04-22T16:45:58.165Z,17.96
2023-04-22T16:48:25.225Z,17.92
2023-04-22T16:50:52.706Z,17.90
2023-04-22T16:53:19.829Z,17.84
2023-04-22T16:55:46.934Z,17.81
2023-04-22T16:58:14.036Z,17.80
2023-04-22T17:00:41.162Z,17.76
2023-04-22T17:03:08.296Z,17.68
2023-04-22T17:05:35.531Z,17.68
2023-04-22T17:08:02.631Z,17.66
2023-04-22T17:10:29.826Z,17.68
2023-04-22T17:12:56.963Z,17.61
2023-04-22T17:15:24.177Z,17.61
2023-04-22T17:17:51.315Z,17.63
2023-04-22T17:20:18.427Z,17.60
2023-04-22T17:22:45.936Z,17.58
2023-04-22T17:25:12.996Z,17.57
2023-04-22T17:27:40.080Z,17.53
2023-04-22T17:30:07.589Z,17.52
2023-04-22T17:32:34.735Z,17.46
2023-04-22T17:35:02.725Z,17.45
2023-04-22T17:37:29.954Z,17.40
2023-04-22T17:39:57.089Z,17.39
2023-04-22T17:42:32.206Z,17.36
2023-04-22T17:45:06.691Z,17.26
2023-04-22T17:47:33.802Z,17.22
2023-04-22T17:50:00.886Z,17.18
2023-04-22T17:52:28.009Z,17.17
2023-04-22T17:54:55.073Z,17.12
2023-04-22T17:57:22.271Z,17.07
2023-04-22T17:59:49.370Z,17.07
2023-04-22T18:02:16.548Z,17.01
2023-04-22T18:04:43.821Z,16.96
2023-04-22T18:07:11.017Z,16.88
2023-04-22T18:09:38.268Z,16.84
2023-04-22T18:12:05.741Z,16.73
2023-04-22T18:14:32.791Z,16.66
2023-04-22T18:17:00.269Z,16.50
2023-04-22T18:19:27.475Z,16.47
2023-04-22T18:22:00.088Z,16.38
2023-04-22T18:24:27.940Z,16.29
2023-04-22T18:26:55.078Z,16.23
2023-04-22T18:29:22.114Z,16.26
2023-04-22T18:31:49.335Z,16.19
2023-04-22T18:34:16.429Z,16.13
2023-04-22T18:36:43.563Z,16.12
2023-04-22T18:39:10.811Z,16.03
2023-04-22T18:41:39.482Z,15.94
2023-04-22T18:44:06.642Z,15.92
2023-04-22T18:46:33.749Z,15.88
2023-04-22T18:49:01.087Z,15.93
2023-04-22T18:51:29.781Z,15.98
2023-04-22T18:53:57.277Z,15.97
2023-04-22T18:56:24.462Z,15.96
2023-04-22T18:58:51.537Z,15.94
2023-04-22T19:01:18.722Z,15.90
2023-04-22T19:06:13.563Z,15.78
2023-04-22T19:08:40.642Z,15.68
2023-04-22T19:11:07.962Z,15.63
2023-04-22T19:13:35.089Z,15.60
2023-04-22T19:16:02.241Z,15.64
2023-04-22T19:18:29.385Z,15.65
2023-04-22T19:20:56.532Z,15.51
2023-04-22T19:23:23.673Z,15.49
2023-04-22T19:25:51.551Z,15.52
2023-04-22T19:28:18.612Z,15.58
2023-04-22T19:30:46.240Z,15.57
2023-04-22T19:33:13.297Z,15.55
2023-04-22T19:35:40.341Z,15.51
2023-04-22T19:38:07.498Z,15.50
2023-04-22T19:40:34.599Z,15.48
2023-04-22T19:43:01.713Z,15.49
2023-04-22T19:45:29.915Z,15.49
2023-04-22T19:47:57.204Z,15.46
2023-04-22T19:50:24.407Z,15.47
2023-04-22T19:52:57.356Z,15.42
2023-04-22T19:55:24.808Z,15.43
2023-04-22T19:57:52.153Z,15.39
2023-04-22T20:00:19.452Z,15.36
2023-04-22T20:02:46.682Z,15.36
2023-04-22T20:05:14.212Z,15.34
2023-04-22T20:07:42.641Z,15.31
2023-04-22T20:10:09.990Z,15.23
2023-04-22T20:12:37.281Z,15.17
2023-04-22T20:15:05.672Z,15.20
2023-04-22T20:17:35.839Z,15.14
2023-04-22T20:20:06.812Z,14.93
2023-04-22T20:22:34.834Z,14.78
2023-04-22T20:25:06.418Z,14.69
2023-04-22T20:27:34.654Z,14.68
2023-04-22T20:30:01.847Z,14.63
2023-04-22T20:32:29.425Z,14.67
2023-04-22T20:34:56.993Z,14.70
2023-04-22T20:37:25.009Z,14.81
2023-04-22T20:39:52.680Z,14.68
2023-04-22T20:42:21.817Z,14.57
2023-04-22T20:44:48.863Z,14.42
2023-04-22T20:47:19.474Z,14.40
2023-04-22T20:49:46.511Z,14.43
2023-04-22T20:52:13.649Z,14.42
2023-04-22T20:54:41.158Z,14.43
2023-04-22T20:57:08.332Z,14.47
2023-04-22T20:59:35.678Z,14.53
2023-04-22T21:02:04.228Z,14.55
2023-04-22T21:04:32.013Z,14.53
2023-04-22T21:07:00.996Z,14.52
2023-04-22T21:09:28.162Z,14.40
2023-04-22T21:11:55.338Z,14.38
2023-04-22T21:14:26.149Z,14.39
2023-04-22T21:16:57.775Z,14.49
2023-04-22T21:19:25.268Z,14.48
2023-04-22T21:21:53.100Z,14.46
2023-04-22T21:24:21.084Z,14.45
2023-04-22T21:26:48.681Z,14.34
2023-04-22T21:29:16.537Z,14.31
2023-04-22T21:31:51.515Z,14.33
2023-04-22T21:34:24.836Z,14.30
2023-04-22T21:36:51.990Z,14.29
2023-04-22T21:39:19.062Z,14.12
2023-04-22T21:41:46.199Z,13.70
2023-04-22T21:44:13.687Z,13.80
2023-04-22T21:46:40.817Z,13.94
2023-04-22T21:49:08.042Z,13.98
2023-04-22T21:51:35.186Z,13.97
2023-04-22T21:54:02.374Z,13.96
2023-04-22T21:56:31.325Z,13.90
2023-04-22T21:58:58.448Z,13.92
2023-04-22T22:01:26.212Z,13.88
2023-04-22T22:03:53.638Z,13.65
2023-04-22T22:06:20.746Z,13.66
2023-04-22T22:08:47.846Z,13.55
2023-04-22T22:11:27.478Z,13.51
2023-04-22T22:13:57.648Z,13.44
2023-04-22T22:16:25.587Z,13.51
2023-04-22T22:18:52.845Z,13.46
2023-04-22T22:21:19.953Z,13.50
2023-04-22T22:23:47.171Z,13.47
2023-04-22T22:26:14.228Z,13.46
2023-04-22T22:28:41.276Z,13.43
2023-04-22T22:31:08.366Z,13.42
2023-04-22T22:33:35.457Z,13.43
2023-04-22T22:36:02.552Z,13.44
2023-04-22T22:38:29.564Z,13.44
2023-04-22T22:40:56.631Z,13.42
2023-04-22T22:43:23.673Z,13.38
2023-04-22T22:45:50.873Z,13.37
2023-04-22T22:48:18.102Z,13.36
2023-04-22T22:50:46.429Z,13.36
2023-04-22T22:53:13.553Z,13.36
2023-04-22T22:55:40.736Z,13.34
2023-04-22T22:58:07.793Z,13.33
2023-04-22T23:00:34.922Z,13.27
2023-04-22T23:03:02.120Z,13.27
2023-04-22T23:05:29.309Z,13.23
2023-04-22T23:07:56.314Z,13.19
2023-04-22T23:10:23.434Z,13.16
2023-04-22T23:12:50.593Z,13.18
2023-04-22T23:15:17.631Z,13.20
2023-04-22T23:17:44.850Z,13.17
2023-04-22T23:20:12.241Z,13.19
2023-04-22T23:22:40.558Z,13.19
2023-04-22T23:25:08.487Z,13.15
2023-04-22T23:27:35.994Z,13.15
2023-04-22T23:30:04.531Z,13.15
2023-04-22T23:32:32.485Z,13.16
2023-04-22T23:35:00.644Z,13.16
2023-04-22T23:37:28.149Z,13.13
2023-04-22T23:39:55.228Z,13.12
2023-04-22T23:42:22.368Z,13.12
2023-04-22T23:44:49.665Z,13.09
2023-04-22T23:47:16.978Z,13.08
2023-04-22T23:49:44.250Z,13.08
2023-04-22T23:52:12.959Z,13.06
2023-04-22T23:54:40.994Z,13.03
2023-04-22T23:57:08.771Z,13.01
2023-04-22T23:59:36.054Z,13.01
